Weather reports worldwide

Advertisment
Mende, France (7554): temperature & dewpoint: 15.05.2019 13:00:00 - 21.05.2019 13:00:00 (CEST)Mende, France (7554): temperature 5cm: 15.05.2019 13:00:00 - 21.05.2019 13:00:00 (CEST)Mende, France (7554): temperature -20cm & temperature -100cm: 15.05.2019 13:00:00 - 21.05.2019 13:00:00 (CEST)Mende, France (7554): wind speed & gusts: 15.05.2019 13:00:00 - 21.05.2019 13:00:00 (CEST)Mende, France (7554): wind direction: 15.05.2019 13:00:00 - 21.05.2019 13:00:00 (CEST)Mende, France (7554): visibility: 15.05.2019 13:00:00 - 21.05.2019 13:00:00 (CEST)Mende, France (7554): sunshine duration: 15.05.2019 13:00:00 - 21.05.2019 13:00:00 (CEST)Mende, France (7554): precipitation: 15.05.2019 13:00:00 - 21.05.2019 13:00:00 (CEST)
Date & Time tt [°C] td [°C] tt 5cm [°C] tt -20cm [°C] tt -100cm [°C] ff [km/h] ff [kn] fx [km/h] fx [kn] dd vv [km] sd [min] rr [mm]
21.05.2019 13:00:00 13,4 7,4 15,3 11,0 10,6 19 10 30 16 N 20 8 0,0
21.05.2019 12:00:00 13,0 7,4 14,5 11,0 10,6 13 7 37 20 N 20 0 0,0
21.05.2019 11:00:00 11,5 6,8 14,2 11,1 10,6 21 12 33 18 N 20 3 0,0
21.05.2019 10:00:00 12,5 8,4 13,7 11,1 10,6 13 7 35 19 NNW 18 49 0,0
21.05.2019 09:00:00 9,9 8,3 7,3 11,2 10,6 14 8 26 14 N 17 37 0,0
21.05.2019 08:00:00 6,4 5,8 5,0 11,3 10,6 4 2 12 7 WNW 10 7 0,0
21.05.2019 07:00:00 5,2 4,5 2,0 11,3 10,6 3 1 11 6 NNW 0,2 0 0,0
21.05.2019 06:00:00 5,2 4,3 -0,1 11,3 10,6 5 3 8 5 W 0,9 0 0,0
21.05.2019 05:00:00 5,4 4,4 1,1 11,4 10,6 3 2 6 3 W 10 0 0,0
21.05.2019 04:00:00 6,1 5,1 3,5 11,4 10,6 2 1 12 6 N 19 0 0,0
21.05.2019 03:00:00 6,4 5,3 3,5 11,4 10,6 3 1 6 4 NNW 20 0 0,0
21.05.2019 02:00:00 5,8 4,8 1,4 11,4 10,6 5 3 15 8 N 20 0 0,0
21.05.2019 01:00:00 5,6 4,2 1,3 11,4 10,6 5 3 13 7 NNW 20 0 0,0
21.05.2019 00:00:00 7,0 4,5 2,5 11,4 10,6 7 4 17 9 W 20 0 0,0
20.05.2019 23:00:00 7,7 4,6 4,1 11,3 10,6 5 3 12 7 NNW 20 0 0,0
20.05.2019 22:00:00 8,8 4,8 5,6 11,2 10,6 6 3 18 10 WSW 20 0 0,0
20.05.2019 21:00:00 10,8 5,7 9,5 11,1 10,6 4 2 20 11 N 20 29 0,0
20.05.2019 20:00:00 11,2 5,5 11,7 11,0 10,6 15 8 35 19 WNW 20 13 0,0
20.05.2019 19:00:00 11,5 6,4 13,1 10,9 10,6 14 8 33 18 NNW 20 0 0,0
20.05.2019 18:00:00 11,8 6,3 12,2 10,8 10,6 18 10 36 20 NNW 20 0 0,0
20.05.2019 17:00:00 11,6 6,3 14,8 10,8 10,6 21 12 34 18 NW 20 0 0,0
20.05.2019 16:00:00 12,2 6,0 14,0 10,7 10,6 16 9 34 18 WNW 20 2 0,0
20.05.2019 15:00:00 11,7 6,0 14,4 10,7 10,6 18 10 36 19 W 20 6 0,0
20.05.2019 14:00:00 11,9 8,2 11,3 10,7 10,6 16 8 31 17 W 20 15 0,0
20.05.2019 13:00:00 10,5 8,6 9,7 10,7 10,6 16 8 29 15 SW 20 5 0,0
20.05.2019 12:00:00 11,0 8,2 10,5 10,7 10,6 14 8 29 16 WSW 20 27 0,0
20.05.2019 11:00:00 9,1 7,7 10,3 10,7 10,6 12 6 22 12 WSW 20 0 0,0
20.05.2019 10:00:00 8,6 7,5 8,7 10,8 10,6 4 2 22 12 WSW 19 0 0,0
20.05.2019 09:00:00 7,9 7,0 7,5 10,8 10,6 11 6 23 12 W 20 0 0,0
20.05.2019 08:00:00 7,4 6,7 7,2 10,8 10,7 12 6 24 13 W 15 0 0,0
20.05.2019 07:00:00 7,3 6,6 6,9 10,8 10,6 5 3 13 7 WSW 17 0 0,0
20.05.2019 06:00:00 7,1 6,4 6,7 10,9 10,6 4 2 13 7 W 20 0 0,0
20.05.2019 05:00:00 7,2 6,3 6,7 10,9 10,7 8 5 22 12 W 20 0 0,0
20.05.2019 04:00:00 7,1 6,4 6,6 11,0 10,7 11 6 26 14 WNW 20 0 0,0
20.05.2019 03:00:00 7,0 6,3 6,7 10,9 10,6 12 6 23 13 WNW 20 0 0,0
20.05.2019 02:00:00 7,1 6,4 6,8 11,0 10,6 10 5 19 11 WNW 20 0 0,0
20.05.2019 01:00:00 7,2 6,5 6,7 10,9 10,6 9 5 22 12 WNW 20 0 0,0
20.05.2019 00:00:00 7,2 6,5 6,7 11,0 10,7 14 8 26 14 NW 20 0 0,0
19.05.2019 23:00:00 7,2 6,5 6,7 11,0 10,6 13 7 20 11 WNW 3,7 0 0,0
19.05.2019 22:00:00 7,6 6,8 7,4 11,0 10,6 9 5 17 9 W 20 0 0,0
19.05.2019 21:00:00 7,8 7,2 7,6 11,0 10,6 10 6 19 11 W 20 0 0,0
19.05.2019 20:00:00 7,9 7,3 7,9 11,0 10,7 9 5 22 12 W 11 0 0,6
19.05.2019 19:00:00 8,2 7,6 8,8 10,9 10,7 10 5 22 12 W 18 0 0,2
19.05.2019 18:00:00 8,1 7,5 8,4 10,9 10,6 12 7 20 11 W 2,8 0 -
19.05.2019 17:00:00 8,1 7,3 8,8 10,9 10,6 9 5 15 8 W 10 0 1,6
19.05.2019 16:00:00 8,3 7,5 8,9 10,9 10,6 6 3 16 8 W 17 0 1,9
19.05.2019 15:00:00 8,1 7,3 8,0 10,9 10,7 7 4 16 9 WSW 19 0 2,2
19.05.2019 14:00:00 7,9 7,1 8,2 11,0 10,7 5 3 22 12 SSW 16 0 1,0
19.05.2019 13:00:00 8,2 7,3 9,0 11,0 10,7 10 5 17 9 WSW 19 0 1,4
19.05.2019 12:00:00 7,9 6,7 8,1 11,0 10,7 6 4 16 8 W 17 0 0,8
19.05.2019 11:00:00 7,2 6,1 7,9 11,0 10,6 9 5 20 11 WNW 20 0 0,2
19.05.2019 10:00:00 6,2 5,6 7,6 11,1 10,7 6 3 14 8 WNW 19 0 0,2
19.05.2019 09:00:00 6,2 5,8 6,8 11,1 10,7 6 3 11 6 W 20 0 0,0
19.05.2019 08:00:00 5,9 5,5 5,6 11,2 10,6 5 3 9 5 WSW 19 0 0,0
19.05.2019 07:00:00 5,4 5,0 5,4 11,3 10,6 5 3 10 5 W 1,7 0 0,0
19.05.2019 06:00:00 5,4 4,8 5,2 11,3 10,7 5 3 9 5 W 9 0 0,0
19.05.2019 05:00:00 5,3 4,7 5,2 11,3 10,7 4 2 9 5 W 0,7 0 0,0
19.05.2019 04:00:00 5,4 4,8 5,3 11,3 10,6 4 2 10 6 WSW 6 0 0,0
19.05.2019 03:00:00 5,7 5,1 5,7 11,4 10,7 4 2 9 5 WSW 7 0 0,0
19.05.2019 02:00:00 5,8 5,2 5,7 11,4 10,7 5 3 11 6 WSW 5 0 0,0
19.05.2019 01:00:00 5,9 5,3 5,9 11,4 10,6 7 4 13 7 W 15 0 0,0
19.05.2019 00:00:00 6,2 5,6 6,0 11,4 10,6 6 3 9 5 W 1,4 0 0,0
18.05.2019 23:00:00 6,4 5,7 6,2 11,4 10,6 4 2 10 5 W 16 0 0,0
18.05.2019 22:00:00 6,8 6,1 6,6 11,3 10,6 7 4 11 6 W 4,2 0 0,0
18.05.2019 21:00:00 7,0 6,1 6,8 11,3 10,6 4 2 7 4 WSW 20 0 0,0
18.05.2019 20:00:00 7,5 6,6 7,7 11,3 10,6 5 3 14 8 W 20 0 0,6
18.05.2019 19:00:00 8,0 6,8 8,4 11,3 10,6 9 5 17 9 WSW 20 0 0,2
18.05.2019 18:00:00 8,2 6,8 8,9 11,3 10,6 7 4 16 9 W 20 0 0,4
18.05.2019 17:00:00 8,1 6,9 8,6 11,3 10,6 9 5 21 11 W 20 0 0,6
18.05.2019 16:00:00 8,5 7,0 9,1 11,3 10,7 8 4 17 9 W 20 0 0,2
18.05.2019 15:00:00 8,2 6,8 9,6 11,4 10,6 11 6 21 11 W 19 2 0,2
18.05.2019 14:00:00 7,8 6,9 8,6 11,4 10,6 9 5 19 10 W 20 0 0,6
18.05.2019 13:00:00 7,2 6,6 7,9 11,4 10,6 8 5 19 10 WSW 20 0 0,0
18.05.2019 12:00:00 6,8 6,2 8,3 11,5 10,6 13 7 22 12 WSW 16 0 0,4
18.05.2019 11:00:00 6,6 6,2 6,1 11,6 10,6 8 4 21 11 W 11 0 0,2
18.05.2019 10:00:00 5,7 5,1 5,9 11,6 10,5 13 7 23 12 SW 4,4 0 0,0
18.05.2019 09:00:00 5,6 5,0 5,8 11,7 10,6 11 6 20 11 WSW 0,6 0 0,4
18.05.2019 08:00:00 5,8 5,2 5,9 11,8 10,6 11 6 21 12 WSW 0,1 0 0,0
18.05.2019 07:00:00 5,9 5,2 5,9 11,8 10,6 3 2 6 3 WSW 0,9 0 0,0
18.05.2019 06:00:00 5,9 5,2 5,7 11,9 10,5 0 0 3 2 N 15 0 0,0
18.05.2019 05:00:00 5,8 4,9 5,7 11,9 10,6 2 1 4 2 SSE 7 0 0,4
18.05.2019 04:00:00 5,7 4,8 5,6 12,0 10,5 0 0 5 3 N 5 0 0,0
18.05.2019 03:00:00 5,7 4,8 5,5 12,1 10,6 2 1 8 5 ENE 20 0 0,2
18.05.2019 02:00:00 5,7 4,8 5,5 12,2 10,6 5 3 13 7 SSE 20 0 0,2
18.05.2019 01:00:00 5,8 5,1 5,7 12,3 10,6 5 3 11 6 SE 16 0 0,6
18.05.2019 00:00:00 6,0 5,3 5,8 12,3 10,5 5 3 10 5 S 12 0 0,8
17.05.2019 23:00:00 6,3 5,4 6,2 12,4 10,5 3 2 5 3 SSW 4,6 0 0,2
17.05.2019 22:00:00 6,5 5,4 6,1 12,5 10,6 0 0 9 5 N 10 0 0,6
17.05.2019 21:00:00 6,6 5,4 6,2 12,6 10,5 3 2 9 5 SE 13 0 1,4
17.05.2019 20:00:00 7,0 5,3 6,7 12,6 10,6 0 0 6 3 N 18 0 0,4
17.05.2019 19:00:00 7,2 5,0 7,2 12,7 10,5 3 2 10 5 SE 20 0 0,2
17.05.2019 18:00:00 7,2 5,3 7,3 12,8 10,5 2 1 17 9 SSE 20 0 0,0
17.05.2019 17:00:00 6,8 5,3 6,3 12,9 10,5 7 4 19 11 ESE 20 0 0,4
17.05.2019 16:00:00 6,3 4,3 5,8 13,0 10,5 14 8 31 17 SSE 20 0 0,4
17.05.2019 15:00:00 6,6 4,9 6,8 13,2 10,5 8 4 21 11 SE 20 0 1,0
17.05.2019 14:00:00 6,0 4,5 5,8 13,3 10,5 7 4 19 10 E 16 0 2,5
17.05.2019 13:00:00 5,8 4,1 5,7 13,4 10,5 11 6 29 15 E 9 0 3,4
17.05.2019 12:00:00 6,5 3,6 5,8 13,5 10,5 14 8 28 15 SE 9 0 0,6
17.05.2019 11:00:00 7,4 3,1 6,3 13,6 10,5 14 8 35 19 SE 20 0 0,0
17.05.2019 10:00:00 7,3 3,2 6,1 13,7 10,5 18 10 37 20 SE 20 0 0,0
17.05.2019 09:00:00 6,8 3,8 6,1 13,8 10,4 10 6 32 17 E 20 0 0,2
17.05.2019 08:00:00 7,6 3,8 6,6 13,9 10,4 11 6 36 19 SE 20 0 0,0
17.05.2019 07:00:00 8,1 3,2 7,4 13,9 10,5 10 5 29 16 SE 20 0 0,0
17.05.2019 06:00:00 7,7 2,2 7,1 14,0 10,4 14 7 32 18 ESE 20 0 0,0
17.05.2019 05:00:00 7,8 2,3 7,5 14,1 10,4 16 9 36 19 SE 20 0 0,0
17.05.2019 04:00:00 8,2 3,0 7,6 14,1 10,4 9 5 31 17 SE 20 0 0,0
17.05.2019 03:00:00 8,4 2,2 7,9 14,1 10,5 14 7 32 18 SE 20 0 0,0
17.05.2019 02:00:00 9,2 0,9 7,9 14,1 10,4 11 6 24 13 SE 20 0 0,0
17.05.2019 01:00:00 9,1 2,2 7,1 14,0 10,4 6 4 13 7 ESE 20 0 0,0
17.05.2019 00:00:00 10,0 2,8 6,1 13,9 10,4 6 3 10 6 ENE 20 0 0,0
16.05.2019 23:00:00 10,0 2,8 5,4 13,7 10,4 0 0 9 5 N 20 0 0,0
16.05.2019 22:00:00 10,9 2,7 9,5 13,5 10,4 7 4 22 12 SE 20 0 0,0
16.05.2019 21:00:00 12,0 3,0 11,1 13,3 10,4 13 7 34 18 SSE 20 43 0,0
16.05.2019 20:00:00 14,8 3,9 15,3 13,1 10,4 16 9 29 15 S 20 58 0,0
16.05.2019 19:00:00 16,7 3,7 18,3 12,9 10,4 18 10 32 17 SSE 20 22 0,0
16.05.2019 18:00:00 18,3 0,4 19,9 12,7 10,4 9 5 19 11 W 20 37 0,0
16.05.2019 17:00:00 18,5 0,6 21,6 12,6 10,4 6 3 17 9 SW 20 38 0,0
16.05.2019 16:00:00 19,0 -1,0 26,6 12,5 10,3 9 5 24 13 SSW 20 60 0,0
16.05.2019 15:00:00 18,5 1,5 25,8 12,5 10,4 8 5 19 10 WSW 20 60 0,0
16.05.2019 14:00:00 16,6 1,1 25,0 12,5 10,3 4 2 15 8 WSW 20 60 0,0
16.05.2019 13:00:00 15,2 1,0 21,8 12,7 10,3 5 3 15 8 WSW 20 54 0,0
16.05.2019 12:00:00 13,6 1,6 22,8 12,7 10,3 6 3 16 8 W 20 60 0,0
16.05.2019 11:00:00 11,9 0,3 17,6 12,9 10,3 0 0 14 7 N 20 60 0,0
16.05.2019 10:00:00 10,0 -0,2 12,0 13,1 10,3 3 1 10 5 SSE 20 60 0,0
16.05.2019 09:00:00 7,8 0,0 5,7 13,3 10,3 4 2 10 6 ESE 20 49 0,0
16.05.2019 08:00:00 5,5 -1,0 -1,1 13,4 10,3 6 4 10 5 NE 20 60 0,0
16.05.2019 07:00:00 2,5 -1,7 -3,8 13,5 10,3 4 2 10 6 E 20 0 0,0
16.05.2019 06:00:00 3,0 -1,9 -3,9 13,6 10,3 4 2 8 4 ENE 20 0 0,0
16.05.2019 05:00:00 3,0 -2,1 -1,7 13,7 10,3 6 4 11 6 ENE 20 0 0,0
16.05.2019 04:00:00 3,9 -1,7 -3,3 13,8 10,3 8 4 11 6 ENE 20 0 0,0
16.05.2019 03:00:00 3,8 -1,2 - - - 2 1 8 4 N 20 - 0,0
16.05.2019 02:00:00 4,9 -0,9 -0,4 13,8 10,2 6 3 16 8 ENE 20 0 0,0
16.05.2019 01:00:00 5,9 -0,8 -1,4 13,8 10,3 8 4 13 7 ENE 20 0 0,0
16.05.2019 00:00:00 6,2 -0,5 -1,2 13,7 10,3 5 3 13 7 ENE 20 0 0,0
15.05.2019 23:00:00 6,8 -0,7 2,4 13,5 10,2 4 2 18 10 E 20 0 0,0
15.05.2019 22:00:00 7,7 -0,5 3,1 13,3 10,2 7 4 30 16 NE 20 0 0,0
15.05.2019 21:00:00 9,3 -0,6 7,0 13,1 10,2 15 8 37 20 NE 20 42 0,0
15.05.2019 20:00:00 11,5 0,0 11,7 12,8 10,2 16 9 35 19 NNE 20 60 0,0
15.05.2019 19:00:00 13,6 0,2 18,9 12,6 10,2 17 9 36 20 NNE 20 60 0,0
15.05.2019 18:00:00 14,5 0,7 20,1 12,5 10,2 22 12 41 22 N 20 60 0,0
15.05.2019 17:00:00 15,1 -1,5 22,1 12,3 10,2 23 12 40 22 N 20 60 0,0
15.05.2019 16:00:00 15,1 -0,7 22,1 12,3 10,2 23 13 41 22 N 20 60 0,0
15.05.2019 15:00:00 14,3 -1,8 22,2 12,3 10,2 22 12 39 21 N 20 60 0,0
15.05.2019 14:00:00 13,8 -3,1 23,3 12,3 10,2 15 8 36 19 NE 20 60 0,0
15.05.2019 13:00:00 12,7 -4,0 20,8 12,4 10,2 25 14 46 25 NNE 20 60 0,0

tt = temperature
td = dewpoint
tt 5cm = temperature 5cm
tt -20cm = temperature -20cm
tt -100cm = temperature -100cm
ff = wind speed
fx = gusts
dd = wind direction
vv = visibility
sd = sunshine duration
rr = precipitation

Next stations